Time;durP1;ratioP1;P1;durP2;ratioP2;P2;SDS_P1;SDS_P2;PMS_P1;PMS_P2;Temp;Humidity;BMP_temperature;BMP_pressure;BME280_temperature;BME280_humidity;BME280_pressure;Samples;Min_cycle;Max_cycle;Signal;HPM_P1;HPM_P2
2022/09/30 00:05:29;;;;;;;6.43;5.70;;;;;10.10;98002.00;;;;16631579;28;20230;-50
2022/09/30 00:13:33;;;;;;;8.63;5.37;;;;;10.30;97989.00;;;;16636913;28;20597;-50
2022/09/30 00:21:36;;;;;;;9.30;6.97;;;;;10.70;97992.00;;;;16641869;28;20749;-50
2022/09/30 00:29:40;;;;;;;6.53;5.93;;;;;10.50;97995.00;;;;16637434;28;20240;-50
2022/09/30 00:37:42;;;;;;;10.73;7.10;;;;;10.60;98004.00;;;;16633853;28;20236;-50
2022/09/30 00:45:51;;;;;;;8.67;7.17;;;;;10.40;98008.00;;;;16626146;28;20227;-50
2022/09/30 00:53:57;;;;;;;7.43;6.73;;;;;10.60;98009.00;;;;16626345;28;20256;-50
2022/09/30 01:02:01;;;;;;;7.60;6.90;;;;;11.00;98022.00;;;;16627682;28;20233;-50
2022/09/30 01:10:03;;;;;;;14.87;7.17;;;;;11.10;98021.00;;;;16623504;28;20223;-50
2022/09/30 01:18:12;;;;;;;7.80;7.00;;;;;11.70;98011.00;;;;16632243;28;20713;-50
2022/09/30 01:26:37;;;;;;;6.33;5.70;;;;;11.40;98022.00;;;;16630146;28;20703;-50
2022/09/30 01:34:49;;;;;;;7.87;6.87;;;;;11.30;98009.00;;;;16628264;28;20624;-50
2022/09/30 01:42:55;;;;;;;7.50;6.80;;;;;12.30;97991.00;;;;16641071;28;20242;-49
2022/09/30 01:51:01;;;;;;;8.50;7.70;;;;;12.40;97995.00;;;;16636462;28;20226;-51
2022/09/30 01:59:06;;;;;;;7.47;6.77;;;;;12.10;98008.00;;;;16624023;28;20292;-51
2022/09/30 02:07:16;;;;;;;12.20;10.20;;;;;12.70;98028.00;;;;16624511;28;20235;-49
2022/09/30 02:15:23;;;;;;;10.83;8.13;;;;;12.20;98039.00;;;;16645341;28;20238;-50
2022/09/30 02:23:28;;;;;;;8.97;8.07;;;;;12.00;98036.00;;;;16634140;28;20238;-50
2022/09/30 02:31:33;;;;;;;10.97;8.70;;;;;12.00;98042.00;;;;16626584;28;20306;-50
2022/09/30 02:39:42;;;;;;;8.77;8.07;;;;;12.30;98046.00;;;;16638375;28;20222;-50
2022/09/30 02:47:57;;;;;;;9.30;7.47;;;;;12.10;98044.00;;;;16634703;28;20230;-49
2022/09/30 02:56:17;;;;;;;6.87;6.27;;;;;12.10;98056.00;;;;16621093;28;20222;-50
2022/09/30 03:04:23;;;;;;;8.23;7.43;;;;;12.90;98058.00;;;;16613436;28;20306;-49
2022/09/30 03:12:35;;;;;;;13.77;8.87;;;;;13.20;98064.00;;;;16628444;28;20226;-50
2022/09/30 03:20:44;;;;;;;9.30;7.80;;;;;12.10;98071.00;;;;16644933;28;20841;-50
2022/09/30 03:28:53;;;;;;;9.50;7.53;;;;;11.50;98093.00;;;;16616770;28;20226;-50
2022/09/30 03:37:02;;;;;;;10.27;8.20;;;;;11.30;98097.00;;;;16629660;28;20218;-50
2022/09/30 03:45:09;;;;;;;10.93;8.50;;;;;11.50;98111.00;;;;16646777;28;20226;-50
2022/09/30 03:53:12;;;;;;;8.80;7.90;;;;;12.10;98104.00;;;;16648638;28;20943;-50
2022/09/30 04:01:20;;;;;;;11.63;8.90;;;;;11.10;98105.00;;;;16634117;28;20200;-50
2022/09/30 04:09:22;;;;;;;11.50;9.60;;;;;11.10;98119.00;;;;16638387;28;20245;-49
2022/09/30 04:17:26;;;;;;;11.53;10.23;;;;;11.10;98135.00;;;;16651261;28;20777;-49
2022/09/30 04:25:29;;;;;;;11.43;10.33;;;;;11.70;98130.00;;;;16637097;28;20234;-50
2022/09/30 04:33:33;;;;;;;13.10;9.87;;;;;11.30;98148.00;;;;16610943;28;20227;-49
2022/09/30 04:41:37;;;;;;;13.83;12.03;;;;;11.40;98145.00;;;;16619204;28;20196;-49
2022/09/30 04:49:40;;;;;;;13.20;10.43;;;;;11.70;98156.00;;;;16624571;28;20711;-50
2022/09/30 04:57:46;;;;;;;14.63;13.13;;;;;11.60;98156.00;;;;16623146;28;20223;-50
2022/09/30 05:05:50;;;;;;;12.83;11.63;;;;;11.30;98174.00;;;;16614351;28;20790;-50
2022/09/30 05:13:53;;;;;;;11.70;10.60;;;;;10.70;98190.00;;;;16621106;28;20249;-50
2022/09/30 05:21:57;;;;;;;13.97;12.50;;;;;11.20;98199.00;;;;16623385;28;20676;-49
2022/09/30 05:29:59;;;;;;;21.63;17.47;;;;;11.50;98195.00;;;;16609970;28;20223;-49
2022/09/30 05:38:03;;;;;;;19.30;16.33;;;;;11.70;98207.00;;;;16607479;28;20884;-49
2022/09/30 05:46:06;;;;;;;20.17;18.03;;;;;11.90;98207.00;;;;16595781;28;20227;-49
2022/09/30 05:54:10;;;;;;;18.30;16.37;;;;;12.10;98208.00;;;;16587580;28;20223;-49
2022/09/30 06:02:12;;;;;;;10.20;7.30;;;;;14.40;98191.00;;;;16599010;28;20216;-44
2022/09/30 06:10:16;;;;;;;12.40;11.10;;;;;16.40;98192.00;;;;16614696;28;20254;-45
2022/09/30 06:18:20;;;;;;;14.40;11.77;;;;;15.90;98189.00;;;;16591456;28;20214;-45
2022/09/30 06:26:24;;;;;;;19.90;16.90;;;;;13.30;98216.00;;;;16596599;28;20722;-49
2022/09/30 06:34:26;;;;;;;16.93;15.13;;;;;11.20;98255.00;;;;16595831;28;20595;-49
2022/09/30 06:42:30;;;;;;;14.73;13.23;;;;;10.90;98264.00;;;;16608509;28;20943;-49
2022/09/30 06:50:33;;;;;;;22.60;17.70;;;;;11.90;98272.00;;;;16617102;28;20234;-50
2022/09/30 06:58:38;;;;;;;20.97;17.37;;;;;12.00;98283.00;;;;16611871;28;20219;-49
2022/09/30 07:06:41;;;;;;;19.27;16.50;;;;;12.20;98295.00;;;;16596073;28;20218;-49
2022/09/30 07:14:44;;;;;;;18.83;16.93;;;;;12.30;98310.00;;;;16604716;28;20227;-49
2022/09/30 07:22:47;;;;;;;19.30;17.20;;;;;12.60;98309.00;;;;16629501;28;20222;-49
2022/09/30 07:30:54;;;;;;;24.37;20.97;;;;;12.40;98317.00;;;;16616595;28;20303;-49
2022/09/30 07:38:57;;;;;;;24.90;18.00;;;;;12.50;98315.00;;;;16624408;28;20232;-50
2022/09/30 07:47:02;;;;;;;19.03;14.57;;;;;15.60;98312.00;;;;16622135;28;20235;-54
2022/09/30 07:55:05;;;;;;;12.67;10.37;;;;;16.70;98301.00;;;;16623508;28;20232;-46
2022/09/30 08:03:09;;;;;;;18.97;16.80;;;;;13.50;98327.00;;;;16621981;28;20218;-48
2022/09/30 08:11:12;;;;;;;21.90;17.17;;;;;13.60;98336.00;;;;16634251;28;20315;-50
2022/09/30 08:19:18;;;;;;;16.10;13.90;;;;;14.00;98335.00;;;;16607225;28;20577;-47
2022/09/30 08:27:21;;;;;;;20.00;16.13;;;;;13.80;98339.00;;;;16612161;28;20605;-46
2022/09/30 08:35:25;;;;;;;16.83;14.47;;;;;14.00;98347.00;;;;16612832;28;20739;-48
2022/09/30 08:43:31;;;;;;;14.63;13.13;;;;;14.40;98341.00;;;;16635428;28;20221;-49
2022/09/30 08:51:38;;;;;;;16.33;14.57;;;;;14.10;98338.00;;;;16608638;28;20220;-50
2022/09/30 08:59:44;;;;;;;16.93;14.40;;;;;14.40;98352.00;;;;16614293;28;20214;-49
2022/09/30 09:07:55;;;;;;;19.70;17.77;;;;;15.20;98340.00;;;;16618546;28;20238;-46
2022/09/30 09:16:03;;;;;;;28.70;18.77;;;;;16.30;98344.00;;;;16621146;28;20699;-49
2022/09/30 09:24:13;;;;;;;18.03;16.33;;;;;17.30;98336.00;;;;16635751;28;20255;-48
2022/09/30 09:32:17;;;;;;;16.63;14.90;;;;;16.80;98337.00;;;;16609143;28;21330;-49
2022/09/30 09:40:27;;;;;;;20.63;15.50;;;;;18.10;98331.00;;;;16616981;28;20203;-47
2022/09/30 09:48:34;;;;;;;15.40;13.90;;;;;16.20;98349.00;;;;16630848;28;20234;-49
2022/09/30 09:56:38;;;;;;;17.20;15.00;;;;;15.50;98356.00;;;;16605218;28;20226;-50
2022/09/30 10:04:49;;;;;;;17.23;14.77;;;;;17.00;98354.00;;;;16619706;28;20224;-46
2022/09/30 10:12:53;;;;;;;53.70;12.77;;;;;20.10;98335.00;;;;16608633;28;20247;-49
2022/09/30 10:20:58;;;;;;;11.53;10.40;;;;;20.60;98339.00;;;;16603861;28;20191;-48
2022/09/30 10:29:03;;;;;;;14.20;9.97;;;;;20.80;98341.00;;;;16590337;28;20239;-47
2022/09/30 10:37:09;;;;;;;9.00;8.13;;;;;20.80;98343.00;;;;16588988;28;20239;-48
2022/09/30 10:45:21;;;;;;;6.10;4.97;;;;;21.40;98355.00;;;;16584368;28;20219;-47
2022/09/30 10:53:26;;;;;;;12.43;9.70;;;;;20.60;98343.00;;;;16588448;28;20417;-49
2022/09/30 11:01:32;;;;;;;6.60;5.33;;;;;21.60;98339.00;;;;16593303;28;20203;-48
2022/09/30 11:09:39;;;;;;;7.40;5.60;;;;;21.10;98330.00;;;;16593715;28;20229;-48
2022/09/30 11:17:56;;;;;;;5.53;5.00;;;;;21.10;98330.00;;;;16591336;28;20214;-47
2022/09/30 11:26:03;;;;;;;5.20;4.60;;;;;22.40;98331.00;;;;16596615;28;20314;-48
2022/09/30 11:34:21;;;;;;;5.43;4.50;;;;;21.60;98330.00;;;;16596998;28;20219;-47
2022/09/30 11:42:28;;;;;;;4.90;4.40;;;;;22.40;98335.00;;;;16591027;28;20247;-47
2022/09/30 11:50:42;;;;;;;4.53;3.20;;;;;22.80;98341.00;;;;16613422;28;20233;-49
2022/09/30 11:58:49;;;;;;;3.70;3.33;;;;;24.00;98328.00;;;;16598002;28;20215;-48
2022/09/30 12:06:58;;;;;;;3.00;2.77;;;;;23.80;98332.00;;;;16615851;28;20298;-50
2022/09/30 12:15:03;;;;;;;4.43;3.13;;;;;23.00;98336.00;;;;16605602;28;20226;-50
2022/09/30 12:23:14;;;;;;;3.37;2.00;;;;;24.30;98323.00;;;;16616391;28;20264;-50
2022/09/30 12:31:40;;;;;;;1.80;1.70;;;;;24.90;98327.00;;;;16629424;28;20232;-50
2022/09/30 12:40:16;;;;;;;2.50;2.30;;;;;22.30;98325.00;;;;16633810;28;20230;-51
2022/09/30 12:48:20;;;;;;;2.40;2.00;;;;;24.90;98329.00;;;;16606651;28;20229;-52
2022/09/30 12:56:27;;;;;;;4.27;1.83;;;;;25.80;98329.00;;;;16610517;28;20599;-50
2022/09/30 13:04:35;;;;;;;2.17;1.50;;;;;23.30;98328.00;;;;16618550;28;20215;-50
2022/09/30 13:12:46;;;;;;;2.83;1.50;;;;;25.60;98330.00;;;;16620800;28;20243;-50
2022/09/30 13:20:53;;;;;;;1.80;1.57;;;;;26.80;98335.00;;;;16610817;28;21310;-50
2022/09/30 13:29:34;;;;;;;2.00;1.27;;;;;27.20;98331.00;;;;16598682;28;20651;-50
2022/09/30 13:37:40;;;;;;;1.80;1.30;;;;;27.70;98334.00;;;;16606423;28;20231;-50
2022/09/30 13:45:45;;;;;;;2.30;1.50;;;;;26.60;98342.00;;;;16604655;28;20815;-50
2022/09/30 13:53:50;;;;;;;2.50;1.30;;;;;26.20;98348.00;;;;16609909;28;20227;-50
2022/09/30 14:02:32;;;;;;;1.10;1.00;;;;;26.40;98356.00;;;;16604069;28;20227;-51
2022/09/30 14:10:51;;;;;;;2.43;1.43;;;;;26.20;98362.00;;;;16615611;28;20847;-50
2022/09/30 14:19:31;;;;;;;1.97;1.70;;;;;25.80;98356.00;;;;16621450;28;20218;-49
2022/09/30 14:27:57;;;;;;;2.30;1.60;;;;;26.80;98369.00;;;;16607438;28;20312;-51
2022/09/30 14:36:08;;;;;;;1.60;1.20;;;;;25.50;98381.00;;;;16601543;28;20227;-52
2022/09/30 14:44:14;;;;;;;3.93;1.77;;;;;24.80;98377.00;;;;16609144;28;20215;-51
2022/09/30 14:52:42;;;;;;;2.40;1.80;;;;;22.80;98373.00;;;;16608667;28;20758;-50
2022/09/30 15:00:44;;;;;;;3.67;1.50;;;;;23.70;98369.00;;;;16607009;28;20195;-51
2022/09/30 15:08:49;;;;;;;2.13;1.83;;;;;24.30;98353.00;;;;16606337;28;20240;-53
2022/09/30 15:16:53;;;;;;;26.70;4.87;;;;;24.30;98359.00;;;;16600241;28;20239;-53
2022/09/30 15:24:58;;;;;;;3.73;2.77;;;;;24.20;98368.00;;;;16613862;28;20316;-52
2022/09/30 15:33:02;;;;;;;8.90;3.40;;;;;24.10;98369.00;;;;16595154;28;20226;-51
2022/09/30 15:41:09;;;;;;;3.17;2.87;;;;;23.00;98378.00;;;;16611831;28;20207;-49
2022/09/30 15:49:30;;;;;;;3.70;3.40;;;;;22.00;98375.00;;;;16621573;28;20257;-49
2022/09/30 15:57:55;;;;;;;4.70;2.93;;;;;22.10;98373.00;;;;16608427;28;20219;-49
2022/09/30 16:06:07;;;;;;;3.47;2.60;;;;;21.40;98384.00;;;;16614656;28;20314;-49
2022/09/30 16:14:17;;;;;;;4.40;2.53;;;;;20.60;98394.00;;;;16603987;28;20254;-50
2022/09/30 16:22:49;;;;;;;8.73;6.57;;;;;18.70;98416.00;;;;16614163;28;20345;-49
2022/09/30 16:30:54;;;;;;;6.97;5.93;;;;;18.90;98421.00;;;;16612411;28;20726;-49
2022/09/30 16:38:56;;;;;;;8.93;7.93;;;;;17.30;98426.00;;;;16606875;28;20228;-48
2022/09/30 16:47:00;;;;;;;6.63;6.00;;;;;16.30;98443.00;;;;16607945;28;20234;-49
2022/09/30 16:55:03;;;;;;;5.70;2.73;;;;;15.10;98443.00;;;;16594752;28;20218;-48
2022/09/30 17:03:07;;;;;;;9.00;5.33;;;;;15.80;98444.00;;;;16615356;28;20307;-46
2022/09/30 17:11:09;;;;;;;7.73;5.07;;;;;15.10;98457.00;;;;16612623;28;20937;-49
2022/09/30 17:19:14;;;;;;;14.40;4.53;;;;;14.60;98470.00;;;;16602099;28;20226;-49
2022/09/30 17:27:16;;;;;;;5.57;3.77;;;;;14.30;98479.00;;;;16590452;28;20226;-49
2022/09/30 17:35:21;;;;;;;7.13;5.20;;;;;13.90;98488.00;;;;16584117;28;20241;-49
2022/09/30 17:43:24;;;;;;;6.13;4.90;;;;;13.50;98495.00;;;;16603361;28;20215;-49
2022/09/30 17:51:27;;;;;;;8.00;5.17;;;;;13.10;98505.00;;;;16591818;28;20233;-48
2022/09/30 17:59:30;;;;;;;5.80;4.40;;;;;12.80;98506.00;;;;16598045;28;20221;-48
2022/09/30 18:07:34;;;;;;;9.10;6.77;;;;;12.70;98514.00;;;;16605335;28;20221;-48
2022/09/30 18:15:38;;;;;;;10.27;7.40;;;;;12.70;98516.00;;;;16601031;28;20250;-48
2022/09/30 18:23:42;;;;;;;7.80;5.97;;;;;12.50;98510.00;;;;16600072;28;20739;-48
2022/09/30 18:31:45;;;;;;;11.23;7.07;;;;;12.30;98536.00;;;;16594674;28;20224;-49
2022/09/30 18:39:48;;;;;;;5.80;4.70;;;;;12.10;98549.00;;;;16600359;28;20653;-49
2022/09/30 18:47:54;;;;;;;8.60;7.63;;;;;12.50;98563.00;;;;16593456;28;20773;-48
2022/09/30 18:56:00;;;;;;;12.60;11.30;;;;;12.30;98577.00;;;;16596802;28;20234;-47
2022/09/30 19:04:03;;;;;;;6.60;6.00;;;;;12.40;98576.00;;;;16611359;28;20220;-48
2022/09/30 19:12:10;;;;;;;6.73;5.80;;;;;12.10;98575.00;;;;16609064;28;20717;-47
2022/09/30 19:20:13;;;;;;;7.70;6.80;;;;;12.00;98577.00;;;;16625358;28;20278;-47
2022/09/30 19:28:17;;;;;;;7.90;6.70;;;;;11.90;98574.00;;;;16617810;28;20247;-49
2022/09/30 19:36:20;;;;;;;9.20;6.67;;;;;11.60;98581.00;;;;16606562;28;20219;-48
2022/09/30 19:44:24;;;;;;;15.47;13.37;;;;;11.50;98576.00;;;;16606975;28;20573;-46
2022/09/30 19:52:27;;;;;;;19.20;14.20;;;;;11.50;98581.00;;;;16614423;28;20357;-47
2022/09/30 20:00:30;;;;;;;12.37;9.47;;;;;11.30;98564.00;;;;16610990;28;20215;-47
2022/09/30 20:08:34;;;;;;;10.73;7.47;;;;;11.90;98557.00;;;;16607589;28;20233;-46
2022/09/30 20:16:38;;;;;;;10.70;7.80;;;;;11.90;98558.00;;;;16605938;28;20250;-49
2022/09/30 20:24:40;;;;;;;10.50;9.50;;;;;12.80;98557.00;;;;16612578;28;20219;-47
2022/09/30 20:42:07;;;;;;;6.97;6.20;;;;;11.60;98552.00;;;;16614027;28;20222;-47
2022/09/30 20:50:11;;;;;;;7.97;7.27;;;;;11.30;98561.00;;;;16615538;28;20227;-49
2022/09/30 20:58:15;;;;;;;8.57;6.60;;;;;10.70;98577.00;;;;16622142;28;20218;-49
2022/09/30 21:06:20;;;;;;;8.70;7.37;;;;;10.80;98585.00;;;;16618196;28;20241;-48
2022/09/30 21:14:24;;;;;;;6.57;5.97;;;;;10.60;98608.00;;;;16612934;28;20254;-49
2022/09/30 21:22:27;;;;;;;7.80;6.53;;;;;10.80;98615.00;;;;16624842;28;20219;-48
2022/09/30 21:30:31;;;;;;;7.80;6.63;;;;;10.80;98631.00;;;;16643712;28;20227;-49
2022/09/30 21:38:34;;;;;;;6.83;6.13;;;;;10.60;98633.00;;;;16627510;28;20236;-47
2022/09/30 21:46:37;;;;;;;8.57;6.70;;;;;11.00;98639.00;;;;16617159;28;20230;-48
2022/09/30 21:54:40;;;;;;;8.03;7.23;;;;;10.60;98652.00;;;;16623226;28;20230;-48
2022/09/30 22:02:46;;;;;;;7.70;6.90;;;;;11.00;98656.00;;;;16627904;28;20789;-48
2022/09/30 22:10:50;;;;;;;9.50;7.40;;;;;10.50;98655.00;;;;16614987;28;20310;-48
2022/09/30 22:18:54;;;;;;;7.80;7.10;;;;;10.60;98639.00;;;;16635609;28;20571;-48
2022/09/30 22:26:57;;;;;;;7.63;6.77;;;;;10.60;98632.00;;;;16631238;28;20594;-48
2022/09/30 22:43:26;;;;;;;8.13;7.43;;;;;10.70;98632.00;;;;16610651;28;20222;-48
2022/09/30 22:51:31;;;;;;;8.13;7.30;;;;;10.50;98642.00;;;;16610030;28;20226;-49
2022/09/30 22:59:33;;;;;;;13.07;9.33;;;;;10.90;98634.00;;;;16619980;28;20814;-46
2022/09/30 23:07:37;;;;;;;9.73;8.90;;;;;11.10;98619.00;;;;16621054;28;20299;-47
2022/09/30 23:15:39;;;;;;;12.43;8.93;;;;;11.70;98627.00;;;;16622820;28;20214;-48
2022/09/30 23:23:44;;;;;;;13.47;12.07;;;;;12.00;98637.00;;;;16618523;28;20252;-47
2022/09/30 23:31:46;;;;;;;12.53;11.23;;;;;11.90;98618.00;;;;16614222;28;20304;-47
2022/09/30 23:39:50;;;;;;;17.00;13.83;;;;;12.00;98631.00;;;;16620838;28;20574;-47
2022/09/30 23:47:55;;;;;;;12.30;11.10;;;;;10.80;98641.00;;;;16613791;28;20717;-46
2022/09/30 23:56:01;;;;;;;8.50;7.70;;;;;10.50;98648.00;;;;16621503;28;20770;-48
